Flight Track Log - Related Links

Times and Time Zones

All times are in EST time to prevent confusion due to time zone crossing. See the JBU629 flight status page for this flight to view local times or setup timezone preferences in your user account.

Time Position Orientation Groundspeed Altitude Reporting Facility
EST Latitude Longitude Course Direction KTS MPH feet Rate Location/Type
Mon 08:47:49 PM 40.5821 -73.8572 330° Northwest  Level FlightAware Approximate
Mon 08:48:49 PM 40.5259 -73.9575 32° Northeast  Level FlightAware Approximate
Mon 08:49:50 PM 40.6167 -73.8833 201° Southwest 176 203 3,600  Level New York TRACON
Mon 08:50:56 PM 40.5500 -73.9167 166° South 237 273 5,000 850 Climbing New York TRACON
Mon 08:51:50 PM 40.5000 -73.9000 222° Southwest 253 291 5,300 1,515 Climbing New York TRACON
Mon 08:54:18 PM 40.3808 -74.0406 242° Southwest 240 276 10,100 1,875 Climbing New York Center
Mon 08:55:18 PM 40.3450 -74.1286 245° Southwest 261 300 11,800 2,083 Climbing New York Center
Mon 08:56:19 PM 40.3111 -74.2222 243° Southwest 286 329 14,300 2,083 Climbing New York Center
Mon 08:57:19 PM 40.2794 -74.3022 242° Southwest 293 337 16,000 1,322 Climbing New York Center
Mon 08:58:17 PM 40.2414 -74.3956 244° Southwest 299 344 16,900 504 Climbing New York Center
Mon 08:59:18 PM 40.2072 -74.4889 260° West 299 344 17,000 934 Climbing New York Center
Mon 09:00:19 PM 40.1933 -74.5914 265° West 293 337 18,800 2,000 Climbing New York Center
Mon 09:01:18 PM 40.1853 -74.7106 265° West 293 337 21,000 1,850 Climbing New York Center
Mon 09:02:19 PM 40.1775 -74.8161 264° West 293 337 22,500 1,450 Climbing New York Center
Mon 09:03:18 PM 40.1700 -74.9161 265° West 298 343 23,900 1,475 Climbing New York Center
Mon 09:04:21 PM 40.1611 -75.0431 263° West 312 359 25,500 1,409 Climbing New York Center
Mon 09:05:30 PM 40.1478 -75.1808 265° West 317 365 27,000 1,219 Climbing New York Center
Mon 09:06:29 PM 40.1392 -75.2997 265° West 323 372 28,100 1,008 Climbing New York Center
Mon 09:07:29 PM 40.1303 -75.4214 263° West 333 383 29,000 1,100 Climbing New York Center
Mon 09:08:29 PM 40.1192 -75.5400 264° West 333 383 30,300 1,140 Climbing New York Center
Mon 09:09:30 PM 40.1103 -75.6589 262° West 333 383 31,300 942 Climbing New York Center
Mon 09:10:30 PM 40.0967 -75.7800 250° West 333 383 32,200 793 Climbing New York Center
Mon 09:11:31 PM 40.0722 -75.8678 234° Southwest 333 383 32,900 908 Climbing New York Center
Mon 09:12:29 PM 40.0044 -75.9875 237° Southwest 332 382 34,000 559 Climbing New York Center
Mon 09:13:29 PM 39.9586 -76.0789 237° Southwest 343 395 34,000  Level New York Center
Mon 09:14:29 PM 39.9036 -76.1883 239° Southwest 343 395 34,000  Level New York Center
Mon 09:15:29 PM 39.8550 -76.2928 237° Southwest 343 395 34,000  Level New York Center
Mon 09:16:29 PM 39.8042 -76.3944 236° Southwest 337 388 34,000  Level New York Center
Mon 09:17:34 PM 39.7519 -76.4956 235° Southwest 324 373 34,000  Level Washington Center
Mon 09:18:34 PM 39.6969 -76.5975 236° Southwest 335 386 34,000  Level Washington Center
Mon 09:19:34 PM 39.6419 -76.7017 236° Southwest 347 399 34,000  Level Washington Center
Mon 09:20:34 PM 39.5867 -76.8086 235° Southwest 352 405 34,000  Level Washington Center
Mon 09:21:34 PM 39.5292 -76.9153 231° Southwest 357 411 34,000  Level Washington Center
Mon 09:22:34 PM 39.4678 -77.0136 219° Southwest 357 411 34,000  Level Washington Center
Mon 09:23:34 PM 39.3833 -77.1006 218° Southwest 368 423 34,000  Level Washington Center
Mon 09:24:34 PM 39.2903 -77.1953 219° Southwest 389 448 34,000  Level Washington Center
Mon 09:25:34 PM 39.2081 -77.2817 219° Southwest 389 448 34,000  Level Washington Center
Mon 09:26:34 PM 39.1253 -77.3681 219° Southwest 389 448 34,000  Level Washington Center
Mon 09:27:34 PM 39.0428 -77.4544 218° Southwest 389 448 34,000  Level Washington Center
Mon 09:28:34 PM 38.9581 -77.5403 219° Southwest 389 448 34,000  Level Washington Center
Mon 09:29:34 PM 38.8817 -77.6183 219° Southwest 389 448 34,000  Level Washington Center
Mon 09:30:34 PM 38.7906 -77.7117 220° Southwest 389 448 34,000  Level Washington Center
Mon 09:31:34 PM 38.7097 -77.7972 220° Southwest 389 448 34,000  Level Washington Center
Mon 09:32:34 PM 38.6311 -77.8825 233° Southwest 389 448 34,000  Level Washington Center
Mon 09:33:34 PM 38.5686 -77.9869 233° Southwest 389 448 34,000  Level Washington Center
Mon 09:34:34 PM 38.5058 -78.0936 234° Southwest 384 442 34,000  Level Washington Center
Mon 09:35:34 PM 38.4431 -78.2028 233° Southwest 389 448 34,000  Level Washington Center
Mon 09:36:34 PM 38.3803 -78.3092 232° Southwest 389 448 34,000  Level Washington Center
Mon 09:37:34 PM 38.3153 -78.4153 233° Southwest 383 441 34,000  Level Washington Center
Mon 09:38:34 PM 38.2500 -78.5239 236° Southwest 383 441 34,000  Level Washington Center
Mon 09:39:34 PM 38.1911 -78.6353 232° Southwest 383 441 34,000  Level Washington Center
Mon 09:40:34 PM 38.1192 -78.7536 233° Southwest 389 448 34,000  Level Washington Center
Mon 09:41:34 PM 38.0558 -78.8617 233° Southwest 389 448 34,000  Level Washington Center
Mon 09:42:34 PM 37.9900 -78.9722 231° Southwest 389 448 34,000  Level Washington Center
Mon 09:43:34 PM 37.9222 -79.0797 236° Southwest 395 455 34,000  Level Washington Center
Mon 09:44:34 PM 37.8694 -79.1772 239° Southwest 395 455 34,000  Level Washington Center
Mon 09:45:34 PM 37.8139 -79.2931 238° Southwest 395 455 34,000  Level Washington Center
Mon 09:46:34 PM 37.7558 -79.4108 235° Southwest 389 448 34,000  Level Washington Center
Mon 09:47:34 PM 37.6917 -79.5258 239° Southwest 399 459 34,000  Level Washington Center
Mon 09:48:34 PM 37.6289 -79.6564 236° Southwest 408 470 34,000  Level Washington Center
Mon 09:49:34 PM 37.5753 -79.7583 238° Southwest 408 470 34,000  Level Washington Center
Mon 09:51:20 PM 37.4753 -79.9625 236° Southwest 416 479 34,000  Level Atlanta Center
Mon 09:52:20 PM 37.4144 -80.0781 237° Southwest 406 467 34,000  Level Atlanta Center
Mon 09:53:20 PM 37.3556 -80.1933 236° Southwest 406 467 34,000  Level Atlanta Center
Mon 09:54:20 PM 37.2883 -80.3192 237° Southwest 406 467 34,000  Level Atlanta Center
Mon 09:55:20 PM 37.2294 -80.4339 237° Southwest 406 467 34,000  Level Atlanta Center
Mon 09:56:20 PM 37.1700 -80.5486 237° Southwest 406 467 34,000  Level Atlanta Center
Mon 09:57:20 PM 37.1108 -80.6633 243° Southwest 406 467 34,000  Level Atlanta Center
Mon 09:58:20 PM 37.0658 -80.7744 245° Southwest 401 461 34,000  Level Atlanta Center
Mon 09:59:20 PM 37.0211 -80.8958 245° Southwest 395 455 34,000  Level Atlanta Center
Mon 10:00:20 PM 36.9742 -81.0225 247° West 395 455 34,000  Level Atlanta Center
Mon 10:01:20 PM 36.9314 -81.1461 245° Southwest 390 449 34,000  Level Atlanta Center
Mon 10:02:20 PM 36.8822 -81.2803 246° West 390 449 34,000  Level Atlanta Center
Mon 10:03:20 PM 36.8372 -81.4061 245° Southwest 396 456 34,000  Level Atlanta Center
Mon 10:04:20 PM 36.7917 -81.5297 247° West 396 456 34,000  Level Atlanta Center
Mon 10:05:20 PM 36.7503 -81.6528 246° West 396 456 34,000  Level Atlanta Center
Mon 10:06:20 PM 36.7047 -81.7783 246° West 396 456 34,000  Level Atlanta Center
Mon 10:07:20 PM 36.6592 -81.9039 245° Southwest 401 461 34,000  Level Atlanta Center
Mon 10:08:20 PM 36.6133 -82.0267 245° Southwest 401 461 34,000  Level Atlanta Center
Mon 10:09:20 PM 36.5653 -82.1519 246° West 401 461 34,000  Level Atlanta Center
Mon 10:10:20 PM 36.5250 -82.2639 244° Southwest 401 461 34,000  Level Atlanta Center
Mon 10:11:20 PM 36.4769 -82.3889 246° West 401 461 34,000  Level Atlanta Center
Mon 10:12:20 PM 36.4325 -82.5136 245° Southwest 401 461 34,000 200 Level Atlanta Center
Mon 10:13:20 PM 36.3861 -82.6383 244° Southwest 401 461 34,400 650 Climbing Atlanta Center
Mon 10:14:20 PM 36.3394 -82.7578 245° Southwest 401 461 35,300 800 Climbing Atlanta Center
Mon 10:15:20 PM 36.2928 -82.8794 245° Southwest 396 456 36,000 350 Climbing Atlanta Center
Mon 10:16:20 PM 36.2478 -83.0011 245° Southwest 396 456 36,000  Level Atlanta Center
Mon 10:17:20 PM 36.2008 -83.1253 245° Southwest 396 456 36,000  Level Atlanta Center
Mon 10:18:20 PM 36.1539 -83.2492 245° Southwest 396 456 36,000  Level Atlanta Center
Mon 10:19:20 PM 36.1064 -83.3731 242° Southwest 396 456 36,000  Level Atlanta Center
Mon 10:20:20 PM 36.0489 -83.5044 241° Southwest 401 461 36,000  Level Atlanta Center
Mon 10:21:20 PM 36.0011 -83.6128 239° Southwest 406 467 36,000  Level Atlanta Center
Mon 10:22:20 PM 35.9453 -83.7283 239° Southwest 406 467 36,000  Level Atlanta Center
Mon 10:23:20 PM 35.8872 -83.8492 240° Southwest 406 467 36,000  Level Atlanta Center
Mon 10:24:20 PM 35.8331 -83.9644 240° Southwest 400 460 36,000  Level Atlanta Center
Mon 10:25:20 PM 35.7767 -84.0847 239° Southwest 400 460 36,000  Level Atlanta Center
Mon 10:26:20 PM 35.7203 -84.2025 239° Southwest 400 460 36,000  Level Atlanta Center
Mon 10:27:20 PM 35.6636 -84.3200 240° Southwest 400 460 36,000  Level Atlanta Center
Mon 10:28:20 PM 35.6069 -84.4397 238° Southwest 400 460 36,000  Level Atlanta Center
Mon 10:29:20 PM 35.5483 -84.5569 239° Southwest 400 460 36,000  Level Atlanta Center
Mon 10:30:20 PM 35.4892 -84.6764 241° Southwest 405 466 36,000  Level Atlanta Center
Mon 10:31:20 PM 35.4342 -84.7958 239° Southwest 405 466 36,000  Level Atlanta Center
Mon 10:32:20 PM 35.3750 -84.9150 239° Southwest 405 466 36,000  Level Atlanta Center
Mon 10:33:20 PM 35.3114 -85.0442 240° Southwest 405 466 36,000  Level Atlanta Center
Mon 10:34:20 PM 35.2564 -85.1606 238° Southwest 405 466 36,000  Level Atlanta Center
Mon 10:35:20 PM 35.1967 -85.2792 239° Southwest 405 466 36,000  Level Atlanta Center
Mon 10:36:20 PM 35.1392 -85.3950 239° Southwest 405 466 36,000  Level Atlanta Center
Mon 10:37:20 PM 35.0814 -85.5133 239° Southwest 405 466 36,000  Level Atlanta Center
Mon 10:38:20 PM 35.0236 -85.6317 238° Southwest 405 466 36,000  Level Atlanta Center
Mon 10:39:20 PM 34.9636 -85.7494 239° Southwest 405 466 36,000  Level Atlanta Center
Mon 10:40:20 PM 34.9142 -85.8497 238° Southwest 398 458 36,000  Level Atlanta Center
Mon 10:41:20 PM 34.8539 -85.9675 238° Southwest 398 458 36,000  Level Atlanta Center
Mon 10:42:20 PM 34.7894 -86.0950 239° Southwest 404 465 36,000  Level Atlanta Center
Mon 10:43:20 PM 34.7308 -86.2125 239° Southwest 404 465 36,000  Level Atlanta Center
Mon 10:44:20 PM 34.6725 -86.3294 238° Southwest 404 465 36,000  Level Atlanta Center
Mon 10:48:27 PM 34.4344 -86.7939 237° Southwest 404 465 36,000  Level Memphis Center
Mon 10:49:27 PM 34.3692 -86.9175 240° Southwest 390 449 36,000  Level Memphis Center
Mon 10:50:27 PM 34.3119 -87.0353 236° Southwest 395 455 36,000  Level Memphis Center
Mon 10:51:27 PM 34.2500 -87.1458 239° Southwest 410 472 36,000  Level Memphis Center
Mon 10:52:27 PM 34.1944 -87.2583 237° Southwest 410 472 36,000  Level Memphis Center
Mon 10:53:27 PM 34.1306 -87.3761 238° Southwest 407 468 36,000  Level Memphis Center
Mon 10:54:27 PM 34.0706 -87.4911 239° Southwest 412 474 36,000  Level Memphis Center
Mon 10:55:27 PM 34.0147 -87.6031 236° Southwest 418 481 36,000  Level Memphis Center
Mon 10:56:27 PM 33.9506 -87.7178 239° Southwest 418 481 36,000  Level Memphis Center
Mon 10:57:27 PM 33.8944 -87.8297 237° Southwest 413 475 36,000  Level Memphis Center
Mon 10:58:27 PM 33.8319 -87.9442 237° Southwest 413 475 36,000  Level Memphis Center
Mon 10:59:27 PM 33.7714 -88.0581 238° Southwest 418 481 36,000  Level Memphis Center
Mon 11:00:27 PM 33.7108 -88.1722 238° Southwest 418 481 36,000  Level Memphis Center
Mon 11:01:27 PM 33.6522 -88.2833 237° Southwest 418 481 36,000  Level Memphis Center
Mon 11:02:27 PM 33.5917 -88.3947 238° Southwest 418 481 36,000  Level Memphis Center
Mon 11:03:27 PM 33.5450 -88.4853 238° Southwest 413 475 36,000  Level Memphis Center
Mon 11:04:27 PM 33.4800 -88.6089 237° Southwest 413 475 36,000  Level Memphis Center
Mon 11:05:27 PM 33.4208 -88.7169 237° Southwest 408 470 36,000  Level Memphis Center
Mon 11:06:27 PM 33.3597 -88.8300 236° Southwest 408 470 36,000  Level Memphis Center
Mon 11:07:27 PM 33.2983 -88.9406 237° Southwest 408 470 36,000  Level Memphis Center
Mon 11:08:27 PM 33.2392 -89.0508 237° Southwest 403 464 36,000  Level Memphis Center
Mon 11:09:27 PM 33.1797 -89.1583 237° Southwest 403 464 36,000  Level Memphis Center
Mon 11:10:27 PM 33.1181 -89.2708 236° Southwest 403 464 36,000  Level Memphis Center
Mon 11:11:27 PM 33.0564 -89.3806 236° Southwest 403 464 36,000  Level Memphis Center
Mon 11:12:27 PM 32.9967 -89.4878 236° Southwest 403 464 36,000  Level Memphis Center
Mon 11:13:27 PM 32.9367 -89.5950 235° Southwest 403 464 36,000  Level Memphis Center
Mon 11:14:27 PM 32.8769 -89.6969 236° Southwest 398 458 36,000  Level Memphis Center
Mon 11:15:27 PM 32.8167 -89.8036 238° Southwest 398 458 36,000  Level Memphis Center
Mon 11:16:27 PM 32.7608 -89.9103 235° Southwest 393 452 36,000  Level Memphis Center
Mon 11:17:27 PM 32.7006 -90.0142 237° Southwest 388 447 36,000  Level Memphis Center
Mon 11:18:27 PM 32.6444 -90.1156 236° Southwest 388 447 36,000  Level Memphis Center
Mon 11:19:27 PM 32.5842 -90.2217 236° Southwest 388 447 36,000  Level Memphis Center
Mon 11:20:27 PM 32.5258 -90.3253 236° Southwest 388 447 36,000  Level Memphis Center
Mon 11:21:27 PM 32.4653 -90.4311 236° Southwest 393 452 36,000  Level Memphis Center
Mon 11:22:27 PM 32.4067 -90.5344 236° Southwest 393 452 36,000  Level Memphis Center
Mon 11:23:27 PM 32.3458 -90.6400 236° Southwest 393 452 36,000  Level Memphis Center
Mon 11:24:27 PM 32.2872 -90.7431 236° Southwest 393 452 36,000  Level Memphis Center
Mon 11:25:27 PM 32.2264 -90.8483 237° Southwest 393 452 36,000  Level Memphis Center
Mon 11:27:07 PM 32.1308 -91.0192 236° Southwest 377 434 36,000  Level Houston Center
Mon 11:28:07 PM 32.0728 -91.1200 236° Southwest 377 434 36,000  Level Houston Center
Mon 11:29:07 PM 32.0128 -91.2231 235° Southwest 377 434 36,000  Level Houston Center
Mon 11:30:07 PM 31.9525 -91.3236 236° Southwest 377 434 36,000  Level Houston Center
Mon 11:31:07 PM 31.8944 -91.4239 242° Southwest 377 434 36,000  Level Houston Center
Mon 11:32:07 PM 31.8464 -91.5292 242° Southwest 377 434 36,000  Level Houston Center
Mon 11:33:07 PM 31.7986 -91.6367 243° Southwest 371 427 36,000 -250 Level Houston Center
Mon 11:34:07 PM 31.7528 -91.7417 243° Southwest 371 427 35,500 -750 Descending Houston Center
Mon 11:35:07 PM 31.7067 -91.8464 242° Southwest 371 427 34,500 -750 Descending Houston Center
Mon 11:36:07 PM 31.6586 -91.9536 243° Southwest 371 427 34,000 -250 Descending Houston Center
Mon 11:37:07 PM 31.6103 -92.0631 244° Southwest 371 427 34,000  Level Houston Center
Mon 11:38:07 PM 31.5661 -92.1703 242° Southwest 371 427 34,000  Level Houston Center
Mon 11:39:08 PM 31.5178 -92.2769 243° Southwest 371 427 34,000  Level Houston Center
Mon 11:40:07 PM 31.4714 -92.3814 242° Southwest 371 427 34,000  Level Houston Center
Mon 11:41:08 PM 31.4247 -92.4856 243° Southwest 371 427 34,000  Level Houston Center
Mon 11:42:07 PM 31.3783 -92.5922 242° Southwest 371 427 34,000  Level Houston Center
Mon 11:43:07 PM 31.3317 -92.6964 241° Southwest 371 427 34,000  Level Houston Center
Mon 11:44:07 PM 31.2806 -92.8028 244° Southwest 371 427 34,000  Level Houston Center
Mon 11:45:08 PM 31.2358 -92.9089 243° Southwest 371 427 34,000  Level Houston Center
Mon 11:46:07 PM 31.1889 -93.0153 242° Southwest 371 427 34,000  Level Houston Center
Mon 11:47:07 PM 31.1397 -93.1214 241° Southwest 371 427 34,000  Level Houston Center
Mon 11:48:07 PM 31.0928 -93.2222 243° Southwest 371 427 34,000  Level Houston Center
Mon 11:49:07 PM 31.0456 -93.3308 242° Southwest 371 427 34,000  Level Houston Center
Mon 11:50:07 PM 30.9983 -93.4342 242° Southwest 371 427 34,000  Level Houston Center
Mon 11:51:07 PM 30.9489 -93.5422 242° Southwest 371 427 34,000  Level Houston Center
Mon 11:52:07 PM 30.8994 -93.6525 242° Southwest 376 433 34,000 -446 Level Houston Center
Mon 11:53:08 PM 30.8519 -93.7581 241° Southwest 376 433 33,100 -1,686 Descending Houston Center
Mon 11:54:08 PM 30.7936 -93.8825 241° Southwest 389 448 30,600 -2,319 Descending Houston Center
Mon 11:55:07 PM 30.7394 -93.9947 242° Southwest 389 448 28,500 -2,168 Descending Houston Center
Mon 11:56:07 PM 30.6872 -94.1094 242° Southwest 394 453 26,300 -2,100 Descending Houston Center
Mon 11:57:07 PM 30.6372 -94.2192 242° Southwest 394 453 24,300 -1,983 Descending Houston Center
Mon 11:58:08 PM 30.5872 -94.3267 240° Southwest 389 448 22,300 -1,947 Descending Houston Center
Mon 11:59:01 PM 30.5394 -94.4217 244° Southwest 378 435 20,600 -1,955 Descending Houston Center
Mon 11:59:37 PM 30.5108 -94.4883 234° Southwest 372 428 19,400 -1,701 Descending Houston Center
Tue 12:00:08 AM 30.4914 -94.5192 238° Southwest 378 435 18,700 -1,869 Descending Houston Center
Tue 12:00:38 AM 30.4567 -94.5833 230° Southwest 366 421 17,500 -1,900 Descending Houston Center
Tue 12:01:08 AM 30.4308 -94.6186 234° Southwest 373 429 16,800 -1,900 Descending Houston Center
Tue 12:01:38 AM 30.3964 -94.6731 234° Southwest 357 411 15,600 -1,800 Descending Houston Center
Tue 12:02:08 AM 30.3725 -94.7108 233° Southwest 373 429 15,000 -1,881 Descending Houston Center
Tue 12:02:45 AM 30.3272 -94.7792 233° Southwest 352 405 13,500 -1,592 Descending Houston Center
Tue 12:03:46 AM 30.2708 -94.8664 234° Southwest 343 395 12,400 -1,041 Descending Houston Center
Tue 12:04:46 AM 30.2167 -94.9536 231° Southwest 337 388 11,400 -991 Descending Houston Center
Tue 12:05:41 AM 30.1625 -95.0311 217° Southwest 338 389 10,500 -672 Descending Houston Center
Tue 12:06:42 AM 30.0878 -95.0958 205° Southwest 340 391 10,100 -261 Descending Houston Center
Tue 12:07:36 AM 30.0094 -95.1389 208° Southwest 341 392 10,000 -71 Descending Houston Center
Tue 12:08:07 AM 29.9797 -95.1569 207° Southwest 335 386 10,000  Level Houston Center
Tue 12:08:43 AM 29.9331 -95.1842 206° Southwest 278 320 10,000 -1,052 Level Houston Center
Tue 12:09:44 AM 29.8653 -95.2225 206° Southwest 265 305 8,300 -1,636 Descending Houston Center
Tue 12:10:44 AM 29.7997 -95.2586 225° Southwest 261 300 6,700 -1,091 Descending Houston Center
Tue 12:11:45 AM 29.7481 -95.3189 227° Southwest 242 278 6,100 -281 Descending Houston Center
Tue 12:12:52 AM 29.6983 -95.3794 224° Southwest 234 269 6,100 -803 Level Houston Center
Tue 12:13:52 AM 29.6489 -95.4350 226° Southwest 254 292 4,400 -1,041 Descending Houston Center
Tue 12:14:53 AM 29.6036 -95.4883 166° South 223 257 4,000 -157 Descending Houston Center
Tue 12:15:47 AM 29.5642 -95.4772 128° Southeast 205 236 4,100 -365 Climbing Houston Center
Tue 12:16:48 AM 29.5281 -95.4233 51° Northeast 206 237 3,300 -984 Descending Houston Center
Tue 12:17:49 AM 29.5650 -95.3700 47° Northeast 208 239 2,100 -1,041 Descending Houston Center
Tue 12:18:49 AM 29.5975 -95.3306 43° Northeast 154 177 1,200 -793 Descending Houston Center
Tue 12:19:50 AM 29.6233 -95.3028 43° Northeast 132 152 500 -689 Descending Houston Center

Login

Don't have an account? Register now (free) for customized features, flight alerts, and more!